createdAt,value
2023-05-21T00:01:22.242Z,88.20
2023-05-21T00:03:48.916Z,88.08
2023-05-21T00:06:15.729Z,87.92
2023-05-21T00:08:42.338Z,84.78
2023-05-21T00:11:08.848Z,82.33
2023-05-21T00:13:35.398Z,85.33
2023-05-21T00:16:02.465Z,88.78
2023-05-21T00:18:29.200Z,81.27
2023-05-21T00:20:55.729Z,83.50
2023-05-21T00:23:22.368Z,82.32
2023-05-21T00:25:49.020Z,84.54
2023-05-21T00:28:15.605Z,83.53
2023-05-21T00:30:42.702Z,84.87
2023-05-21T00:33:09.341Z,85.18
2023-05-21T00:35:36.108Z,83.36
2023-05-21T00:38:02.888Z,83.92
2023-05-21T00:40:29.520Z,82.61
2023-05-21T00:42:56.095Z,82.80
2023-05-21T00:45:22.680Z,80.61
2023-05-21T00:47:49.238Z,79.63
2023-05-21T00:50:15.869Z,83.21
2023-05-21T00:52:42.496Z,79.63
2023-05-21T00:55:09.068Z,81.91
2023-05-21T00:57:35.592Z,82.52
2023-05-21T01:00:02.202Z,79.75
2023-05-21T01:02:28.883Z,80.41
2023-05-21T01:04:55.465Z,81.58
2023-05-21T01:07:21.995Z,82.56
2023-05-21T01:09:48.584Z,82.99
2023-05-21T01:12:15.199Z,79.23
2023-05-21T01:14:41.789Z,80.18
2023-05-21T01:17:08.459Z,80.59
2023-05-21T01:19:35.151Z,76.91
2023-05-21T01:22:01.652Z,80.37
2023-05-21T01:24:28.190Z,76.46
2023-05-21T01:26:54.777Z,73.42
2023-05-21T01:29:21.342Z,78.61
2023-05-21T01:31:47.893Z,80.51
2023-05-21T01:34:14.436Z,77.51
2023-05-21T01:36:40.961Z,73.73
2023-05-21T01:39:07.549Z,75.55
2023-05-21T01:41:34.075Z,78.85
2023-05-21T01:44:00.613Z,78.44
2023-05-21T01:46:27.205Z,76.26
2023-05-21T01:48:53.853Z,75.66
2023-05-21T01:51:20.487Z,75.03
2023-05-21T01:53:47.074Z,76.00
2023-05-21T01:56:13.914Z,74.48
2023-05-21T01:58:40.486Z,76.46
2023-05-21T02:01:07.063Z,78.04
2023-05-21T02:03:33.890Z,73.79
2023-05-21T02:06:00.568Z,76.23
2023-05-21T02:08:27.095Z,77.03
2023-05-21T02:10:53.600Z,73.03
2023-05-21T02:13:20.154Z,77.07
2023-05-21T02:15:46.737Z,77.57
2023-05-21T02:18:13.270Z,73.71
2023-05-21T02:20:39.777Z,72.80
2023-05-21T02:23:06.279Z,73.05
2023-05-21T02:25:32.873Z,72.68
2023-05-21T02:27:59.427Z,73.58
2023-05-21T02:30:26.003Z,72.24
2023-05-21T02:32:52.587Z,72.67
2023-05-21T02:35:19.185Z,74.14
2023-05-21T02:37:45.711Z,72.57
2023-05-21T02:40:12.255Z,71.04
2023-05-21T02:42:38.839Z,70.09
2023-05-21T02:45:05.293Z,71.34
2023-05-21T02:47:31.856Z,70.98
2023-05-21T02:49:58.303Z,74.73
2023-05-21T02:52:24.757Z,70.92
2023-05-21T02:54:51.284Z,71.76
2023-05-21T02:57:17.801Z,73.43
2023-05-21T02:59:44.265Z,70.00
2023-05-21T03:02:10.752Z,70.91
2023-05-21T03:04:37.294Z,71.33
2023-05-21T03:07:03.735Z,71.85
2023-05-21T03:09:30.248Z,70.32
2023-05-21T03:11:56.742Z,70.75
2023-05-21T03:14:23.262Z,68.06
2023-05-21T03:16:49.782Z,66.81
2023-05-21T03:19:16.311Z,69.52
2023-05-21T03:21:42.876Z,68.60
2023-05-21T03:24:09.385Z,68.05
2023-05-21T03:26:35.845Z,67.45
2023-05-21T03:29:02.339Z,69.90
2023-05-21T03:31:28.881Z,68.76
2023-05-21T03:33:55.342Z,66.44
2023-05-21T03:36:21.836Z,65.74
2023-05-21T03:38:48.300Z,66.94
2023-05-21T03:41:14.721Z,69.48
2023-05-21T03:43:41.231Z,65.99
2023-05-21T03:46:07.781Z,65.51
2023-05-21T03:48:34.241Z,66.19
2023-05-21T03:51:00.722Z,68.53
2023-05-21T03:53:27.334Z,68.44
2023-05-21T03:55:53.850Z,68.13
2023-05-21T03:58:20.423Z,68.26
2023-05-21T04:00:47.006Z,65.67
2023-05-21T04:03:13.699Z,66.93
2023-05-21T04:05:40.348Z,66.90
2023-05-21T04:08:06.858Z,66.60
2023-05-21T04:10:33.376Z,65.34
2023-05-21T04:12:59.962Z,67.05
2023-05-21T04:15:26.506Z,64.20
2023-05-21T04:17:53.181Z,66.05
2023-05-21T04:20:19.800Z,64.82
2023-05-21T04:22:46.314Z,62.97
2023-05-21T04:25:12.809Z,61.63
2023-05-21T04:27:39.408Z,61.51
2023-05-21T04:30:06.008Z,64.04
2023-05-21T04:32:32.697Z,67.32
2023-05-21T04:34:59.301Z,63.05
2023-05-21T04:37:25.870Z,66.46
2023-05-21T04:39:52.439Z,62.94
2023-05-21T04:42:18.959Z,63.80
2023-05-21T04:44:45.465Z,62.61
2023-05-21T04:47:12.051Z,61.48
2023-05-21T04:49:38.565Z,62.92
2023-05-21T04:52:05.007Z,62.72
2023-05-21T04:54:31.623Z,60.51
2023-05-21T04:56:58.267Z,62.88
2023-05-21T04:59:24.853Z,60.48
2023-05-21T05:01:51.370Z,63.16
2023-05-21T05:04:17.890Z,62.13
2023-05-21T05:06:44.462Z,63.70
2023-05-21T05:09:11.058Z,62.68
2023-05-21T05:11:37.624Z,60.68
2023-05-21T05:14:04.187Z,63.04
2023-05-21T05:16:30.727Z,62.46
2023-05-21T05:18:57.382Z,60.67
2023-05-21T05:21:24.015Z,62.19
2023-05-21T05:23:50.550Z,61.96
2023-05-21T05:26:17.115Z,60.78
2023-05-21T05:28:43.644Z,60.19
2023-05-21T05:31:10.292Z,59.24
2023-05-21T05:33:36.874Z,60.42
2023-05-21T05:36:03.349Z,63.40
2023-05-21T05:38:29.802Z,63.33
2023-05-21T05:40:56.346Z,62.41
2023-05-21T05:43:22.918Z,62.95
2023-05-21T05:45:49.537Z,59.96
2023-05-21T05:48:16.132Z,62.16
2023-05-21T05:50:42.649Z,59.06
2023-05-21T05:53:09.221Z,62.62
2023-05-21T05:55:35.878Z,64.28
2023-05-21T05:58:02.476Z,60.14
2023-05-21T06:00:29.000Z,62.12
2023-05-21T06:02:55.641Z,61.10
2023-05-21T06:05:22.208Z,62.80
2023-05-21T06:07:48.685Z,62.56
2023-05-21T06:10:15.145Z,60.16
2023-05-21T06:12:41.742Z,61.07
2023-05-21T06:15:08.323Z,61.07
2023-05-21T06:17:37.697Z,59.71
2023-05-21T06:20:04.206Z,59.40
2023-05-21T06:22:30.777Z,61.32
2023-05-21T06:24:57.313Z,61.01
2023-05-21T06:27:23.912Z,59.07
2023-05-21T06:29:50.501Z,56.94
2023-05-21T06:32:17.158Z,58.34
2023-05-21T06:34:43.741Z,60.08
2023-05-21T06:37:10.341Z,60.36
2023-05-21T06:39:37.928Z,58.09
2023-05-21T06:42:04.510Z,57.25
2023-05-21T06:44:31.040Z,55.11
2023-05-21T06:46:57.617Z,58.41
2023-05-21T06:49:24.147Z,58.14
2023-05-21T06:51:50.714Z,58.70
2023-05-21T06:54:17.341Z,59.52
2023-05-21T06:56:43.920Z,61.11
2023-05-21T06:59:10.453Z,58.51
2023-05-21T07:01:36.964Z,57.40
2023-05-21T07:04:03.500Z,58.74
2023-05-21T07:06:30.081Z,54.87
2023-05-21T07:08:56.660Z,57.08
2023-05-21T07:11:23.242Z,56.81
2023-05-21T07:13:49.829Z,55.93
2023-05-21T07:16:16.352Z,57.04
2023-05-21T07:18:43.023Z,56.35
2023-05-21T07:21:09.644Z,54.95
2023-05-21T07:23:36.172Z,57.85
2023-05-21T07:26:02.686Z,57.60
2023-05-21T07:28:29.331Z,56.20
2023-05-21T07:30:55.925Z,59.00
2023-05-21T07:33:22.632Z,55.03
2023-05-21T07:35:49.271Z,56.83
2023-05-21T07:38:15.839Z,57.37
2023-05-21T07:40:42.368Z,54.21
2023-05-21T07:43:08.871Z,57.58
2023-05-21T07:45:35.620Z,59.67
2023-05-21T07:48:02.580Z,56.92
2023-05-21T07:50:29.243Z,58.43
2023-05-21T07:52:55.846Z,60.19
2023-05-21T07:55:22.388Z,59.90
2023-05-21T07:57:49.014Z,60.42
2023-05-21T08:00:15.540Z,60.32
2023-05-21T08:02:42.289Z,57.84
2023-05-21T08:05:09.021Z,57.14
2023-05-21T08:07:35.708Z,58.01
2023-05-21T08:10:02.950Z,59.33
2023-05-21T08:12:29.688Z,57.80
2023-05-21T08:14:56.287Z,58.54
2023-05-21T08:17:22.860Z,56.86
2023-05-21T08:19:49.491Z,58.59
2023-05-21T08:22:16.075Z,57.97
2023-05-21T08:24:42.657Z,55.92
2023-05-21T08:27:09.223Z,55.35
2023-05-21T08:29:35.788Z,58.17
2023-05-21T08:32:02.379Z,54.28
2023-05-21T08:34:28.875Z,53.74
2023-05-21T08:36:55.330Z,55.28
2023-05-21T08:39:21.884Z,52.80
2023-05-21T08:41:48.340Z,53.43
2023-05-21T08:44:14.909Z,56.80
2023-05-21T08:46:41.451Z,54.73
2023-05-21T08:49:07.909Z,53.42
2023-05-21T08:51:34.465Z,52.43
2023-05-21T08:54:00.930Z,52.85
2023-05-21T08:56:27.400Z,53.54
2023-05-21T08:58:53.959Z,49.71
2023-05-21T09:01:20.506Z,53.25
2023-05-21T09:03:47.185Z,51.96
2023-05-21T09:06:13.748Z,53.38
2023-05-21T09:08:40.249Z,52.23
2023-05-21T09:11:06.782Z,50.12
2023-05-21T09:13:33.335Z,52.53
2023-05-21T09:15:59.808Z,52.61
2023-05-21T09:18:26.405Z,51.30
2023-05-21T09:20:52.912Z,52.30
2023-05-21T09:23:19.507Z,50.27
2023-05-21T09:25:46.035Z,51.43
2023-05-21T09:28:13.863Z,52.28
2023-05-21T09:30:40.902Z,51.17
2023-05-21T09:33:07.711Z,50.22
2023-05-21T09:35:36.063Z,50.48
2023-05-21T09:38:02.798Z,49.88
2023-05-21T09:40:29.378Z,46.95
2023-05-21T09:42:55.938Z,49.42
2023-05-21T09:45:22.451Z,49.73
2023-05-21T09:47:49.116Z,49.65
2023-05-21T09:50:15.666Z,50.41
2023-05-21T09:52:42.411Z,51.51
2023-05-21T09:55:08.976Z,49.37
2023-05-21T09:57:35.442Z,49.56
2023-05-21T10:00:02.082Z,50.51
2023-05-21T10:02:29.125Z,52.50
2023-05-21T10:04:55.655Z,51.72
2023-05-21T10:07:22.096Z,50.47
2023-05-21T10:09:51.405Z,53.27
2023-05-21T10:12:17.930Z,54.27
2023-05-21T10:14:44.422Z,55.42
2023-05-21T10:17:10.893Z,57.35
2023-05-21T10:19:37.344Z,56.50
2023-05-21T10:22:03.852Z,55.52
2023-05-21T10:24:30.342Z,55.77
2023-05-21T10:26:56.786Z,54.20
2023-05-21T10:29:23.314Z,55.68
2023-05-21T10:31:50.053Z,58.99
2023-05-21T10:34:16.847Z,60.49
2023-05-21T10:36:43.304Z,60.02
2023-05-21T10:39:09.794Z,57.91
2023-05-21T10:41:36.371Z,58.58
2023-05-21T10:44:02.901Z,57.82
2023-05-21T10:46:29.393Z,61.86
2023-05-21T10:48:55.843Z,74.11
2023-05-21T10:51:22.365Z,81.13
2023-05-21T10:53:48.885Z,82.09
2023-05-21T10:56:15.369Z,78.96
2023-05-21T10:58:41.942Z,79.92
2023-05-21T11:01:08.509Z,77.92
2023-05-21T11:03:37.393Z,77.82
2023-05-21T11:06:04.503Z,71.96
2023-05-21T11:08:31.024Z,67.69
2023-05-21T11:10:57.574Z,69.69
2023-05-21T11:13:24.067Z,69.28
2023-05-21T11:15:50.618Z,64.64
2023-05-21T11:18:17.175Z,64.89
2023-05-21T11:20:43.707Z,67.80
2023-05-21T11:23:10.329Z,66.89
2023-05-21T11:25:36.955Z,62.58
2023-05-21T11:28:03.514Z,67.65
2023-05-21T11:30:30.045Z,69.89
2023-05-21T11:32:56.629Z,68.45
2023-05-21T11:35:23.217Z,64.44
2023-05-21T11:37:49.700Z,64.52
2023-05-21T11:40:16.158Z,64.97
2023-05-21T11:42:42.623Z,65.10
2023-05-21T11:45:09.245Z,61.11
2023-05-21T11:47:35.862Z,59.64
2023-05-21T11:50:02.426Z,59.99
2023-05-21T11:52:28.918Z,61.00
2023-05-21T11:54:55.505Z,65.25
2023-05-21T11:57:21.988Z,58.00
2023-05-21T11:59:48.446Z,56.96
2023-05-21T12:02:14.975Z,59.15
2023-05-21T12:04:41.585Z,57.62
2023-05-21T12:07:08.105Z,58.87
2023-05-21T12:09:34.652Z,58.79
2023-05-21T12:12:01.121Z,56.06
2023-05-21T12:14:27.616Z,55.19
2023-05-21T12:16:54.253Z,52.64
2023-05-21T12:19:20.922Z,56.10
2023-05-21T12:21:47.470Z,58.28
2023-05-21T12:24:13.964Z,53.91
2023-05-21T12:26:40.441Z,54.46
2023-05-21T12:29:06.905Z,52.22
2023-05-21T12:31:33.374Z,56.03
2023-05-21T12:33:59.991Z,56.20
2023-05-21T12:36:26.544Z,54.41
2023-05-21T12:38:53.067Z,54.42
2023-05-21T12:41:19.632Z,53.84
2023-05-21T12:43:46.135Z,52.44
2023-05-21T12:46:12.640Z,52.82
2023-05-21T12:48:39.175Z,56.96
2023-05-21T12:51:05.766Z,53.64
2023-05-21T12:53:32.285Z,55.34
2023-05-21T12:55:58.867Z,54.79
2023-05-21T12:58:25.417Z,51.80
2023-05-21T13:00:51.928Z,50.89
2023-05-21T13:03:18.473Z,53.18
2023-05-21T13:05:45.180Z,51.20
2023-05-21T13:08:11.717Z,51.94
2023-05-21T13:10:38.388Z,53.54
2023-05-21T13:13:05.145Z,50.09
2023-05-21T13:15:31.737Z,50.68
2023-05-21T13:17:58.279Z,50.13
2023-05-21T13:20:24.900Z,47.47
2023-05-21T13:22:51.382Z,50.58
2023-05-21T13:25:17.937Z,50.74
2023-05-21T13:27:44.500Z,51.51
2023-05-21T13:30:10.992Z,45.93
2023-05-21T13:32:37.523Z,50.04
2023-05-21T13:35:04.069Z,48.27
2023-05-21T13:37:33.300Z,48.74
2023-05-21T13:39:59.783Z,47.25
2023-05-21T13:42:26.324Z,47.73
2023-05-21T13:44:52.795Z,48.34
2023-05-21T13:47:19.250Z,49.56
2023-05-21T13:49:45.848Z,47.62
2023-05-21T13:52:12.440Z,49.73
2023-05-21T13:54:38.966Z,49.25
2023-05-21T13:57:05.421Z,49.18
2023-05-21T13:59:33.698Z,50.52
2023-05-21T14:02:00.554Z,48.11
2023-05-21T14:04:27.157Z,49.08
2023-05-21T14:06:53.733Z,48.51
2023-05-21T14:09:20.237Z,48.83
2023-05-21T14:11:46.757Z,49.15
2023-05-21T14:14:13.298Z,46.70
2023-05-21T14:16:39.793Z,46.33
2023-05-21T14:19:06.427Z,46.98
2023-05-21T14:21:33.036Z,47.29
2023-05-21T14:23:59.571Z,50.70
2023-05-21T14:26:26.127Z,47.36
2023-05-21T14:28:52.595Z,48.61
2023-05-21T14:31:19.139Z,49.13
2023-05-21T14:33:45.875Z,47.90
2023-05-21T14:36:12.461Z,42.89
2023-05-21T14:38:39.014Z,48.42
2023-05-21T14:41:08.513Z,48.53
2023-05-21T14:43:34.993Z,47.47
2023-05-21T14:46:01.546Z,48.27
2023-05-21T14:48:28.117Z,48.79
2023-05-21T14:50:54.620Z,44.36
2023-05-21T14:53:21.083Z,48.45
2023-05-21T14:55:47.583Z,46.42
2023-05-21T14:58:14.198Z,45.20
2023-05-21T15:00:40.785Z,46.31
2023-05-21T15:03:07.424Z,45.17
2023-05-21T15:05:34.092Z,41.97
2023-05-21T15:08:00.617Z,42.08
2023-05-21T15:10:27.149Z,40.41
2023-05-21T15:12:53.684Z,39.58
2023-05-21T15:15:20.161Z,40.77
2023-05-21T15:17:49.775Z,39.63
2023-05-21T15:20:16.256Z,40.69
2023-05-21T15:22:42.768Z,41.40
2023-05-21T15:25:09.342Z,39.20
2023-05-21T15:27:35.922Z,37.61
2023-05-21T15:30:02.582Z,38.41
2023-05-21T15:32:29.163Z,38.73
2023-05-21T15:34:55.681Z,39.51
2023-05-21T15:37:22.333Z,39.32
2023-05-21T15:39:48.867Z,42.13
2023-05-21T15:42:15.392Z,85.43
2023-05-21T15:44:41.891Z,121.57
2023-05-21T15:47:08.557Z,134.36
2023-05-21T15:49:35.206Z,143.11
2023-05-21T15:52:01.722Z,137.97
2023-05-21T15:54:28.277Z,130.13
2023-05-21T15:56:55.959Z,127.65
2023-05-21T15:59:22.523Z,131.22
2023-05-21T16:01:49.076Z,122.58
2023-05-21T16:04:15.644Z,117.07
2023-05-21T16:06:42.292Z,112.66
2023-05-21T16:09:08.849Z,115.97
2023-05-21T16:11:35.437Z,109.38
2023-05-21T16:14:02.048Z,102.92
2023-05-21T16:16:31.460Z,105.06
2023-05-21T16:19:00.850Z,102.63
2023-05-21T16:21:27.377Z,102.10
2023-05-21T16:23:56.951Z,99.77
2023-05-21T16:26:23.517Z,102.42
2023-05-21T16:28:50.105Z,100.38
2023-05-21T16:31:16.596Z,99.25
2023-05-21T16:33:43.048Z,101.28
2023-05-21T16:36:09.602Z,96.13
2023-05-21T16:38:36.095Z,91.17
2023-05-21T16:41:02.596Z,88.09
2023-05-21T16:43:29.099Z,90.54
2023-05-21T16:45:55.589Z,91.33
2023-05-21T16:48:22.299Z,89.49
2023-05-21T16:50:48.893Z,90.38
2023-05-21T16:53:15.355Z,90.55
2023-05-21T16:55:41.806Z,92.80
2023-05-21T16:58:08.420Z,90.92
2023-05-21T17:00:35.023Z,88.94
2023-05-21T17:03:01.781Z,88.14
2023-05-21T17:05:28.389Z,89.13
2023-05-21T17:07:55.008Z,85.62
2023-05-21T17:10:21.500Z,91.17
2023-05-21T17:12:47.984Z,90.02
2023-05-21T17:15:14.548Z,93.97
2023-05-21T17:17:41.175Z,90.68
2023-05-21T17:20:07.721Z,88.97
2023-05-21T17:22:34.304Z,89.82
2023-05-21T17:25:00.916Z,86.23
2023-05-21T17:27:27.552Z,86.44
2023-05-21T17:29:54.049Z,83.00
2023-05-21T17:32:20.508Z,84.14
2023-05-21T17:34:47.008Z,84.91
2023-05-21T17:37:13.482Z,84.28
2023-05-21T17:39:39.946Z,83.27
2023-05-21T17:42:06.633Z,81.77
2023-05-21T17:44:33.224Z,85.35
2023-05-21T17:46:59.786Z,78.55
2023-05-21T17:49:26.357Z,81.78
2023-05-21T17:51:52.908Z,78.84
2023-05-21T17:54:19.460Z,85.00
2023-05-21T17:56:46.700Z,82.01
2023-05-21T17:59:13.327Z,79.26
2023-05-21T18:01:39.844Z,79.98
2023-05-21T18:04:06.465Z,79.50
2023-05-21T18:06:33.030Z,81.22
2023-05-21T18:08:59.691Z,83.14
2023-05-21T18:11:26.314Z,79.67
2023-05-21T18:13:52.918Z,80.75
2023-05-21T18:16:19.573Z,78.30
2023-05-21T18:18:46.211Z,81.50
2023-05-21T18:21:12.856Z,76.63
2023-05-21T18:23:39.488Z,76.00
2023-05-21T18:26:06.060Z,74.66
2023-05-21T18:28:35.586Z,72.85
2023-05-21T18:31:02.187Z,76.58
2023-05-21T18:33:28.770Z,75.93
2023-05-21T18:35:55.325Z,77.77
2023-05-21T18:38:21.987Z,74.24
2023-05-21T18:40:48.506Z,75.40
2023-05-21T18:43:15.082Z,71.97
2023-05-21T18:45:41.682Z,74.61
2023-05-21T18:48:08.365Z,72.15
2023-05-21T18:50:35.182Z,71.78
2023-05-21T18:53:01.942Z,72.55
2023-05-21T18:55:28.502Z,71.75
2023-05-21T18:57:55.035Z,70.91
2023-05-21T19:00:21.647Z,71.23
2023-05-21T19:02:48.292Z,72.13
2023-05-21T19:05:14.912Z,69.57
2023-05-21T19:07:41.526Z,68.85
2023-05-21T19:10:08.241Z,69.00
2023-05-21T19:12:34.789Z,72.17
2023-05-21T19:15:01.369Z,71.74
2023-05-21T19:17:27.950Z,70.86
2023-05-21T19:19:54.531Z,69.43
2023-05-21T19:22:21.138Z,70.15
2023-05-21T19:24:47.764Z,68.36
2023-05-21T19:27:14.318Z,69.23
2023-05-21T19:29:40.894Z,72.52
2023-05-21T19:32:07.426Z,67.04
2023-05-21T19:34:34.127Z,66.63
2023-05-21T19:37:00.759Z,67.04
2023-05-21T19:39:27.403Z,69.39
2023-05-21T19:41:53.958Z,66.33
2023-05-21T19:44:20.517Z,69.49
2023-05-21T19:46:47.106Z,65.69
2023-05-21T19:49:13.584Z,68.63
2023-05-21T19:51:40.052Z,68.02
2023-05-21T19:54:06.515Z,65.29
2023-05-21T19:56:33.079Z,63.87
2023-05-21T19:58:59.563Z,64.13
2023-05-21T20:01:26.165Z,67.88
2023-05-21T20:03:52.717Z,65.54
2023-05-21T20:06:19.284Z,64.82
2023-05-21T20:08:45.784Z,65.80
2023-05-21T20:11:12.292Z,65.42
2023-05-21T20:13:38.815Z,65.03
2023-05-21T20:16:05.382Z,65.24
2023-05-21T20:18:31.923Z,64.91
2023-05-21T20:20:58.439Z,66.51
2023-05-21T20:23:24.911Z,66.26
2023-05-21T20:25:51.425Z,64.52
2023-05-21T20:28:17.998Z,64.67
2023-05-21T20:30:44.698Z,66.87
2023-05-21T20:33:11.218Z,68.51
2023-05-21T20:35:37.841Z,67.07
2023-05-21T20:38:04.359Z,66.79
2023-05-21T20:40:30.914Z,66.07
2023-05-21T20:42:57.410Z,64.79
2023-05-21T20:45:23.906Z,65.55
2023-05-21T20:47:50.488Z,63.96
2023-05-21T20:50:17.086Z,62.45
2023-05-21T20:52:45.492Z,63.94
2023-05-21T20:55:13.476Z,67.28
2023-05-21T20:57:39.983Z,66.07
2023-05-21T21:00:06.498Z,65.81
2023-05-21T21:02:33.120Z,62.56
2023-05-21T21:04:59.637Z,64.99
2023-05-21T21:07:26.129Z,60.60
2023-05-21T21:09:52.682Z,63.31
2023-05-21T21:12:25.356Z,62.11
2023-05-21T21:14:53.324Z,62.41
2023-05-21T21:17:19.931Z,64.16
2023-05-21T21:19:46.417Z,64.02
2023-05-21T21:22:12.939Z,63.74
2023-05-21T21:24:39.525Z,66.98
2023-05-21T21:27:06.085Z,63.72
2023-05-21T21:29:32.639Z,58.59
2023-05-21T21:31:59.093Z,61.20
2023-05-21T21:34:25.648Z,59.90
2023-05-21T21:36:52.192Z,60.65
2023-05-21T21:39:18.747Z,63.24
2023-05-21T21:41:45.244Z,60.92
2023-05-21T21:44:13.155Z,60.80
2023-05-21T21:46:39.755Z,61.05
2023-05-21T21:49:06.399Z,62.73
2023-05-21T21:51:32.920Z,58.90
2023-05-21T21:53:59.483Z,61.57
2023-05-21T21:56:26.019Z,60.35
2023-05-21T21:58:52.623Z,63.00
2023-05-21T22:01:19.263Z,57.33
2023-05-21T22:03:45.889Z,59.59
2023-05-21T22:06:12.378Z,58.89
2023-05-21T22:08:38.912Z,59.67
2023-05-21T22:11:05.557Z,60.10
2023-05-21T22:13:32.168Z,59.79
2023-05-21T22:15:58.695Z,58.03
2023-05-21T22:18:38.829Z,55.64
2023-05-21T22:21:07.446Z,57.20
2023-05-21T22:23:34.074Z,57.97
2023-05-21T22:26:00.667Z,56.40
2023-05-21T22:28:27.245Z,55.61
2023-05-21T22:30:53.716Z,58.70
2023-05-21T22:33:20.343Z,57.29
2023-05-21T22:35:46.906Z,56.79
2023-05-21T22:38:13.437Z,56.71
2023-05-21T22:40:40.301Z,57.67
2023-05-21T22:43:07.087Z,55.79
2023-05-21T22:45:33.644Z,57.31
2023-05-21T22:48:00.268Z,53.28
2023-05-21T22:50:26.911Z,54.36
2023-05-21T22:52:53.447Z,55.43
2023-05-21T22:55:20.046Z,58.62
2023-05-21T22:57:46.545Z,52.89
2023-05-21T23:00:13.158Z,54.72
2023-05-21T23:02:39.732Z,53.62
2023-05-21T23:05:06.373Z,54.25
2023-05-21T23:07:32.988Z,54.89
2023-05-21T23:09:59.694Z,55.06
2023-05-21T23:12:26.280Z,53.32
2023-05-21T23:14:52.869Z,57.12
2023-05-21T23:17:19.412Z,55.03
2023-05-21T23:19:46.014Z,57.58
2023-05-21T23:22:12.526Z,54.49
2023-05-21T23:24:39.098Z,53.46
2023-05-21T23:27:05.664Z,54.40
2023-05-21T23:29:32.226Z,52.88
2023-05-21T23:31:58.910Z,54.99
2023-05-21T23:34:25.376Z,54.41
2023-05-21T23:36:51.983Z,53.96
2023-05-21T23:39:18.539Z,55.91
2023-05-21T23:41:45.087Z,52.53
2023-05-21T23:44:11.731Z,52.74
2023-05-21T23:46:38.299Z,52.37
2023-05-21T23:49:04.814Z,50.56
2023-05-21T23:51:31.420Z,53.36
2023-05-21T23:53:57.962Z,53.22
2023-05-21T23:56:24.527Z,48.42
2023-05-21T23:58:51.141Z,49.22
